sensor_id;sensor_type;location;lat;lon;timestamp;P1;durP1;ratioP1;P2;durP2;ratioP2
7485;SDS011;3784;54.098;9.998;2023-09-12T00:02:10;28.17;;;24.80;;
7485;SDS011;3784;54.098;9.998;2023-09-12T00:04:36;28.47;;;25.57;;
7485;SDS011;3784;54.098;9.998;2023-09-12T00:07:03;28.93;;;26.03;;
7485;SDS011;3784;54.098;9.998;2023-09-12T00:09:29;33.80;;;30.50;;
7485;SDS011;3784;54.098;9.998;2023-09-12T00:11:55;33.60;;;30.20;;
7485;SDS011;3784;54.098;9.998;2023-09-12T00:14:22;32.10;;;28.73;;
7485;SDS011;3784;54.098;9.998;2023-09-12T00:16:48;35.43;;;30.77;;
7485;SDS011;3784;54.098;9.998;2023-09-12T00:19:15;33.97;;;30.43;;
7485;SDS011;3784;54.098;9.998;2023-09-12T00:21:41;34.97;;;31.57;;
7485;SDS011;3784;54.098;9.998;2023-09-12T00:24:07;35.87;;;32.23;;
7485;SDS011;3784;54.098;9.998;2023-09-12T00:26:34;33.40;;;30.17;;
7485;SDS011;3784;54.098;9.998;2023-09-12T00:29:00;37.77;;;33.83;;
7485;SDS011;3784;54.098;9.998;2023-09-12T00:31:27;38.07;;;34.00;;
7485;SDS011;3784;54.098;9.998;2023-09-12T00:33:53;33.53;;;30.17;;
7485;SDS011;3784;54.098;9.998;2023-09-12T00:36:20;33.10;;;29.60;;
7485;SDS011;3784;54.098;9.998;2023-09-12T00:38:46;37.43;;;32.90;;
7485;SDS011;3784;54.098;9.998;2023-09-12T00:41:13;35.10;;;31.60;;
7485;SDS011;3784;54.098;9.998;2023-09-12T00:43:39;34.77;;;31.10;;
7485;SDS011;3784;54.098;9.998;2023-09-12T00:46:05;38.30;;;34.10;;
7485;SDS011;3784;54.098;9.998;2023-09-12T00:48:32;41.47;;;37.10;;
7485;SDS011;3784;54.098;9.998;2023-09-12T00:50:59;41.47;;;37.13;;
7485;SDS011;3784;54.098;9.998;2023-09-12T00:53:26;42.17;;;37.73;;
7485;SDS011;3784;54.098;9.998;2023-09-12T00:55:54;38.17;;;34.17;;
7485;SDS011;3784;54.098;9.998;2023-09-12T00:58:23;41.17;;;36.57;;
7485;SDS011;3784;54.098;9.998;2023-09-12T01:00:50;38.37;;;34.23;;
7485;SDS011;3784;54.098;9.998;2023-09-12T01:03:16;37.00;;;33.27;;
7485;SDS011;3784;54.098;9.998;2023-09-12T01:05:43;35.13;;;31.67;;
7485;SDS011;3784;54.098;9.998;2023-09-12T01:08:10;36.43;;;32.70;;
7485;SDS011;3784;54.098;9.998;2023-09-12T01:10:36;35.67;;;31.97;;
7485;SDS011;3784;54.098;9.998;2023-09-12T01:13:03;35.97;;;32.27;;
7485;SDS011;3784;54.098;9.998;2023-09-12T01:15:29;37.63;;;33.57;;
7485;SDS011;3784;54.098;9.998;2023-09-12T01:17:56;38.93;;;34.77;;
7485;SDS011;3784;54.098;9.998;2023-09-12T01:20:27;36.17;;;32.33;;
7485;SDS011;3784;54.098;9.998;2023-09-12T01:22:56;35.73;;;32.23;;
7485;SDS011;3784;54.098;9.998;2023-09-12T01:25:58;41.50;;;37.07;;
7485;SDS011;3784;54.098;9.998;2023-09-12T01:28:31;41.50;;;36.97;;
7485;SDS011;3784;54.098;9.998;2023-09-12T01:31:01;37.77;;;34.07;;
7485;SDS011;3784;54.098;9.998;2023-09-12T01:33:29;41.33;;;36.97;;
7485;SDS011;3784;54.098;9.998;2023-09-12T01:35:55;42.43;;;37.90;;
7485;SDS011;3784;54.098;9.998;2023-09-12T01:38:22;41.00;;;36.53;;
7485;SDS011;3784;54.098;9.998;2023-09-12T01:40:51;40.10;;;35.80;;
7485;SDS011;3784;54.098;9.998;2023-09-12T01:43:21;38.30;;;34.00;;
7485;SDS011;3784;54.098;9.998;2023-09-12T01:45:55;39.53;;;34.07;;
7485;SDS011;3784;54.098;9.998;2023-09-12T01:48:25;44.30;;;36.37;;
7485;SDS011;3784;54.098;9.998;2023-09-12T01:50:53;47.20;;;37.47;;
7485;SDS011;3784;54.098;9.998;2023-09-12T01:53:20;43.00;;;35.37;;
7485;SDS011;3784;54.098;9.998;2023-09-12T01:55:46;51.23;;;38.97;;
7485;SDS011;3784;54.098;9.998;2023-09-12T01:58:13;37.93;;;33.17;;
7485;SDS011;3784;54.098;9.998;2023-09-12T02:00:40;43.97;;;34.03;;
7485;SDS011;3784;54.098;9.998;2023-09-12T02:03:07;41.60;;;35.13;;
7485;SDS011;3784;54.098;9.998;2023-09-12T02:05:34;44.00;;;33.97;;
7485;SDS011;3784;54.098;9.998;2023-09-12T02:08:00;50.03;;;38.17;;
7485;SDS011;3784;54.098;9.998;2023-09-12T02:10:27;57.33;;;41.80;;
7485;SDS011;3784;54.098;9.998;2023-09-12T02:12:54;56.67;;;39.37;;
7485;SDS011;3784;54.098;9.998;2023-09-12T02:15:20;53.20;;;38.13;;
7485;SDS011;3784;54.098;9.998;2023-09-12T02:17:46;62.70;;;43.13;;
7485;SDS011;3784;54.098;9.998;2023-09-12T02:20:16;62.40;;;42.83;;
7485;SDS011;3784;54.098;9.998;2023-09-12T02:22:43;59.50;;;42.90;;
7485;SDS011;3784;54.098;9.998;2023-09-12T02:25:09;62.57;;;41.33;;
7485;SDS011;3784;54.098;9.998;2023-09-12T02:27:35;65.40;;;42.77;;
7485;SDS011;3784;54.098;9.998;2023-09-12T02:30:02;54.03;;;38.93;;
7485;SDS011;3784;54.098;9.998;2023-09-12T02:32:29;51.37;;;37.90;;
7485;SDS011;3784;54.098;9.998;2023-09-12T02:34:56;53.37;;;38.73;;
7485;SDS011;3784;54.098;9.998;2023-09-12T02:37:23;53.83;;;38.27;;
7485;SDS011;3784;54.098;9.998;2023-09-12T02:39:49;66.40;;;43.87;;
7485;SDS011;3784;54.098;9.998;2023-09-12T02:42:16;65.60;;;43.03;;
7485;SDS011;3784;54.098;9.998;2023-09-12T02:44:42;58.07;;;40.37;;
7485;SDS011;3784;54.098;9.998;2023-09-12T02:47:08;56.50;;;40.37;;
7485;SDS011;3784;54.098;9.998;2023-09-12T02:49:35;61.33;;;41.97;;
7485;SDS011;3784;54.098;9.998;2023-09-12T02:52:01;72.63;;;46.20;;
7485;SDS011;3784;54.098;9.998;2023-09-12T02:54:28;59.63;;;41.10;;
7485;SDS011;3784;54.098;9.998;2023-09-12T02:56:54;58.23;;;41.03;;
7485;SDS011;3784;54.098;9.998;2023-09-12T02:59:21;64.13;;;40.87;;
7485;SDS011;3784;54.098;9.998;2023-09-12T03:01:47;59.33;;;41.83;;
7485;SDS011;3784;54.098;9.998;2023-09-12T03:04:14;71.63;;;46.37;;
7485;SDS011;3784;54.098;9.998;2023-09-12T03:06:40;63.97;;;43.80;;
7485;SDS011;3784;54.098;9.998;2023-09-12T03:09:07;65.10;;;45.57;;
7485;SDS011;3784;54.098;9.998;2023-09-12T03:11:33;71.77;;;45.50;;
7485;SDS011;3784;54.098;9.998;2023-09-12T03:14:00;60.20;;;41.90;;
7485;SDS011;3784;54.098;9.998;2023-09-12T03:16:26;70.07;;;42.60;;
7485;SDS011;3784;54.098;9.998;2023-09-12T03:18:52;61.20;;;42.73;;
7485;SDS011;3784;54.098;9.998;2023-09-12T03:21:19;60.43;;;41.33;;
7485;SDS011;3784;54.098;9.998;2023-09-12T03:23:45;62.53;;;41.33;;
7485;SDS011;3784;54.098;9.998;2023-09-12T03:26:12;55.43;;;41.03;;
7485;SDS011;3784;54.098;9.998;2023-09-12T03:28:38;60.07;;;41.40;;
7485;SDS011;3784;54.098;9.998;2023-09-12T03:31:06;66.07;;;42.77;;
7485;SDS011;3784;54.098;9.998;2023-09-12T03:33:34;59.47;;;41.90;;
7485;SDS011;3784;54.098;9.998;2023-09-12T03:36:01;53.90;;;39.10;;
7485;SDS011;3784;54.098;9.998;2023-09-12T03:38:27;55.87;;;38.50;;
7485;SDS011;3784;54.098;9.998;2023-09-12T03:40:54;56.90;;;38.83;;
7485;SDS011;3784;54.098;9.998;2023-09-12T03:43:20;49.30;;;37.37;;
7485;SDS011;3784;54.098;9.998;2023-09-12T03:45:47;54.13;;;37.93;;
7485;SDS011;3784;54.098;9.998;2023-09-12T03:48:13;50.97;;;36.73;;
7485;SDS011;3784;54.098;9.998;2023-09-12T03:50:40;51.47;;;36.17;;
7485;SDS011;3784;54.098;9.998;2023-09-12T03:53:06;47.17;;;35.97;;
7485;SDS011;3784;54.098;9.998;2023-09-12T03:55:32;44.80;;;33.57;;
7485;SDS011;3784;54.098;9.998;2023-09-12T03:57:59;46.43;;;34.63;;
7485;SDS011;3784;54.098;9.998;2023-09-12T04:00:25;45.37;;;34.70;;
7485;SDS011;3784;54.098;9.998;2023-09-12T04:02:52;43.10;;;33.90;;
7485;SDS011;3784;54.098;9.998;2023-09-12T04:05:18;49.87;;;34.80;;
7485;SDS011;3784;54.098;9.998;2023-09-12T04:07:45;44.70;;;33.33;;
7485;SDS011;3784;54.098;9.998;2023-09-12T04:10:11;42.70;;;31.97;;
7485;SDS011;3784;54.098;9.998;2023-09-12T04:12:38;45.73;;;33.43;;
7485;SDS011;3784;54.098;9.998;2023-09-12T04:15:05;43.77;;;32.87;;
7485;SDS011;3784;54.098;9.998;2023-09-12T04:17:32;39.63;;;31.67;;
7485;SDS011;3784;54.098;9.998;2023-09-12T04:19:59;38.57;;;31.70;;
7485;SDS011;3784;54.098;9.998;2023-09-12T04:22:25;37.47;;;31.77;;
7485;SDS011;3784;54.098;9.998;2023-09-12T04:24:51;36.13;;;30.67;;
7485;SDS011;3784;54.098;9.998;2023-09-12T04:27:18;36.47;;;32.17;;
7485;SDS011;3784;54.098;9.998;2023-09-12T04:29:44;39.70;;;32.37;;
7485;SDS011;3784;54.098;9.998;2023-09-12T04:32:11;43.90;;;34.07;;
7485;SDS011;3784;54.098;9.998;2023-09-12T04:34:37;38.63;;;32.00;;
7485;SDS011;3784;54.098;9.998;2023-09-12T04:37:04;39.53;;;31.17;;
7485;SDS011;3784;54.098;9.998;2023-09-12T04:39:32;45.20;;;32.47;;
7485;SDS011;3784;54.098;9.998;2023-09-12T04:41:59;47.77;;;37.43;;
7485;SDS011;3784;54.098;9.998;2023-09-12T04:44:25;46.07;;;35.77;;
7485;SDS011;3784;54.098;9.998;2023-09-12T04:46:51;37.40;;;32.23;;
7485;SDS011;3784;54.098;9.998;2023-09-12T04:49:18;47.13;;;33.37;;
7485;SDS011;3784;54.098;9.998;2023-09-12T04:51:44;42.60;;;33.00;;
7485;SDS011;3784;54.098;9.998;2023-09-12T04:54:11;40.43;;;32.13;;
7485;SDS011;3784;54.098;9.998;2023-09-12T04:56:37;48.33;;;35.80;;
7485;SDS011;3784;54.098;9.998;2023-09-12T04:59:04;44.97;;;33.33;;
7485;SDS011;3784;54.098;9.998;2023-09-12T05:01:32;39.00;;;32.07;;
7485;SDS011;3784;54.098;9.998;2023-09-12T05:03:59;41.43;;;31.67;;
7485;SDS011;3784;54.098;9.998;2023-09-12T05:06:25;40.63;;;32.50;;
7485;SDS011;3784;54.098;9.998;2023-09-12T05:08:52;39.53;;;32.87;;
7485;SDS011;3784;54.098;9.998;2023-09-12T05:11:18;40.37;;;32.40;;
7485;SDS011;3784;54.098;9.998;2023-09-12T05:13:44;47.10;;;34.67;;
7485;SDS011;3784;54.098;9.998;2023-09-12T05:16:11;42.73;;;34.27;;
7485;SDS011;3784;54.098;9.998;2023-09-12T05:18:37;45.17;;;35.87;;
7485;SDS011;3784;54.098;9.998;2023-09-12T05:21:04;48.00;;;37.70;;
7485;SDS011;3784;54.098;9.998;2023-09-12T05:23:30;45.43;;;35.93;;
7485;SDS011;3784;54.098;9.998;2023-09-12T05:25:57;43.50;;;35.33;;
7485;SDS011;3784;54.098;9.998;2023-09-12T05:28:23;49.63;;;36.90;;
7485;SDS011;3784;54.098;9.998;2023-09-12T05:30:50;52.73;;;40.10;;
7485;SDS011;3784;54.098;9.998;2023-09-12T05:33:17;58.43;;;41.03;;
7485;SDS011;3784;54.098;9.998;2023-09-12T05:35:43;56.40;;;41.10;;
7485;SDS011;3784;54.098;9.998;2023-09-12T05:38:13;47.20;;;36.40;;
7485;SDS011;3784;54.098;9.998;2023-09-12T05:40:39;47.77;;;38.07;;
7485;SDS011;3784;54.098;9.998;2023-09-12T05:43:05;52.50;;;39.37;;
7485;SDS011;3784;54.098;9.998;2023-09-12T05:45:32;57.60;;;42.97;;
7485;SDS011;3784;54.098;9.998;2023-09-12T05:47:59;48.40;;;39.17;;
7485;SDS011;3784;54.098;9.998;2023-09-12T05:50:26;61.70;;;43.00;;
7485;SDS011;3784;54.098;9.998;2023-09-12T05:52:52;65.10;;;46.33;;
7485;SDS011;3784;54.098;9.998;2023-09-12T05:55:19;66.37;;;46.40;;
7485;SDS011;3784;54.098;9.998;2023-09-12T05:57:45;62.30;;;43.97;;
7485;SDS011;3784;54.098;9.998;2023-09-12T06:00:14;60.90;;;43.87;;
7485;SDS011;3784;54.098;9.998;2023-09-12T06:02:41;63.07;;;43.20;;
7485;SDS011;3784;54.098;9.998;2023-09-12T06:05:08;55.17;;;44.53;;
7485;SDS011;3784;54.098;9.998;2023-09-12T06:07:35;53.17;;;42.60;;
7485;SDS011;3784;54.098;9.998;2023-09-12T06:10:01;62.33;;;44.90;;
7485;SDS011;3784;54.098;9.998;2023-09-12T06:12:28;58.33;;;44.40;;
7485;SDS011;3784;54.098;9.998;2023-09-12T06:14:54;55.57;;;41.43;;
7485;SDS011;3784;54.098;9.998;2023-09-12T06:17:22;50.30;;;41.27;;
7485;SDS011;3784;54.098;9.998;2023-09-12T06:19:48;53.67;;;40.73;;
7485;SDS011;3784;54.098;9.998;2023-09-12T06:22:18;53.77;;;41.17;;
7485;SDS011;3784;54.098;9.998;2023-09-12T06:24:46;47.53;;;39.70;;
7485;SDS011;3784;54.098;9.998;2023-09-12T06:27:12;49.33;;;38.83;;
7485;SDS011;3784;54.098;9.998;2023-09-12T06:29:48;58.40;;;42.53;;
7485;SDS011;3784;54.098;9.998;2023-09-12T06:32:17;50.63;;;40.30;;
7485;SDS011;3784;54.098;9.998;2023-09-12T06:34:44;53.77;;;40.10;;
7485;SDS011;3784;54.098;9.998;2023-09-12T06:37:11;50.23;;;39.80;;
7485;SDS011;3784;54.098;9.998;2023-09-12T06:39:38;46.73;;;36.37;;
7485;SDS011;3784;54.098;9.998;2023-09-12T06:42:04;44.37;;;39.40;;
7485;SDS011;3784;54.098;9.998;2023-09-12T06:44:31;44.60;;;37.70;;
7485;SDS011;3784;54.098;9.998;2023-09-12T06:46:57;46.00;;;37.50;;
7485;SDS011;3784;54.098;9.998;2023-09-12T06:49:24;42.93;;;36.77;;
7485;SDS011;3784;54.098;9.998;2023-09-12T06:51:50;45.40;;;35.63;;
7485;SDS011;3784;54.098;9.998;2023-09-12T06:54:16;44.20;;;39.13;;
7485;SDS011;3784;54.098;9.998;2023-09-12T06:56:43;48.33;;;38.83;;
7485;SDS011;3784;54.098;9.998;2023-09-12T06:59:09;45.97;;;38.00;;
7485;SDS011;3784;54.098;9.998;2023-09-12T07:01:36;49.50;;;38.13;;
7485;SDS011;3784;54.098;9.998;2023-09-12T07:04:03;47.93;;;37.67;;
7485;SDS011;3784;54.098;9.998;2023-09-12T07:06:30;50.47;;;38.93;;
7485;SDS011;3784;54.098;9.998;2023-09-12T07:08:57;45.83;;;37.23;;
7485;SDS011;3784;54.098;9.998;2023-09-12T07:11:23;42.93;;;36.20;;
7485;SDS011;3784;54.098;9.998;2023-09-12T07:13:50;41.80;;;35.83;;
7485;SDS011;3784;54.098;9.998;2023-09-12T07:16:18;48.60;;;39.93;;
7485;SDS011;3784;54.098;9.998;2023-09-12T07:18:47;44.10;;;38.17;;
7485;SDS011;3784;54.098;9.998;2023-09-12T07:21:14;43.63;;;38.03;;
7485;SDS011;3784;54.098;9.998;2023-09-12T07:23:40;40.23;;;34.73;;
7485;SDS011;3784;54.098;9.998;2023-09-12T07:26:11;45.83;;;36.37;;
7485;SDS011;3784;54.098;9.998;2023-09-12T07:28:41;42.97;;;35.63;;
7485;SDS011;3784;54.098;9.998;2023-09-12T07:31:07;40.43;;;36.10;;
7485;SDS011;3784;54.098;9.998;2023-09-12T07:33:34;39.50;;;35.13;;
7485;SDS011;3784;54.098;9.998;2023-09-12T07:36:00;35.73;;;31.37;;
7485;SDS011;3784;54.098;9.998;2023-09-12T07:38:29;34.73;;;30.97;;
7485;SDS011;3784;54.098;9.998;2023-09-12T07:40:57;34.27;;;30.57;;
7485;SDS011;3784;54.098;9.998;2023-09-12T07:43:24;34.87;;;30.03;;
7485;SDS011;3784;54.098;9.998;2023-09-12T07:45:54;40.90;;;33.10;;
7485;SDS011;3784;54.098;9.998;2023-09-12T07:48:22;37.57;;;32.17;;
7485;SDS011;3784;54.098;9.998;2023-09-12T07:50:48;35.17;;;31.40;;
7485;SDS011;3784;54.098;9.998;2023-09-12T07:53:15;31.90;;;28.60;;
7485;SDS011;3784;54.098;9.998;2023-09-12T07:55:41;32.93;;;29.40;;
7485;SDS011;3784;54.098;9.998;2023-09-12T07:58:14;32.80;;;29.27;;
7485;SDS011;3784;54.098;9.998;2023-09-12T08:00:41;31.97;;;28.67;;
7485;SDS011;3784;54.098;9.998;2023-09-12T08:03:08;26.97;;;24.23;;
7485;SDS011;3784;54.098;9.998;2023-09-12T08:05:35;28.43;;;25.53;;
7485;SDS011;3784;54.098;9.998;2023-09-12T08:08:01;27.97;;;25.13;;
7485;SDS011;3784;54.098;9.998;2023-09-12T08:10:28;27.70;;;24.80;;
7485;SDS011;3784;54.098;9.998;2023-09-12T08:12:55;28.50;;;25.57;;
7485;SDS011;3784;54.098;9.998;2023-09-12T08:15:21;26.73;;;23.93;;
7485;SDS011;3784;54.098;9.998;2023-09-12T08:17:48;24.73;;;21.80;;
7485;SDS011;3784;54.098;9.998;2023-09-12T08:20:18;26.93;;;24.30;;
7485;SDS011;3784;54.098;9.998;2023-09-12T08:22:46;26.27;;;23.50;;
7485;SDS011;3784;54.098;9.998;2023-09-12T08:25:12;28.27;;;25.33;;
7485;SDS011;3784;54.098;9.998;2023-09-12T08:27:40;24.90;;;22.03;;
7485;SDS011;3784;54.098;9.998;2023-09-12T08:30:08;25.77;;;23.17;;
7485;SDS011;3784;54.098;9.998;2023-09-12T08:32:36;25.13;;;22.60;;
7485;SDS011;3784;54.098;9.998;2023-09-12T08:35:02;23.73;;;21.33;;
7485;SDS011;3784;54.098;9.998;2023-09-12T08:37:30;25.30;;;22.80;;
7485;SDS011;3784;54.098;9.998;2023-09-12T08:39:56;23.50;;;21.17;;
7485;SDS011;3784;54.098;9.998;2023-09-12T08:42:26;20.97;;;18.70;;
7485;SDS011;3784;54.098;9.998;2023-09-12T08:44:54;21.23;;;18.20;;
7485;SDS011;3784;54.098;9.998;2023-09-12T08:47:22;20.33;;;18.33;;
7485;SDS011;3784;54.098;9.998;2023-09-12T08:49:49;19.40;;;17.50;;
7485;SDS011;3784;54.098;9.998;2023-09-12T08:52:15;20.97;;;18.23;;
7485;SDS011;3784;54.098;9.998;2023-09-12T08:54:42;18.53;;;16.53;;
7485;SDS011;3784;54.098;9.998;2023-09-12T08:57:08;22.97;;;17.40;;
7485;SDS011;3784;54.098;9.998;2023-09-12T08:59:37;18.33;;;16.40;;
7485;SDS011;3784;54.098;9.998;2023-09-12T09:02:03;15.83;;;14.23;;
7485;SDS011;3784;54.098;9.998;2023-09-12T09:04:32;15.07;;;13.57;;
7485;SDS011;3784;54.098;9.998;2023-09-12T09:06:59;15.67;;;14.07;;
7485;SDS011;3784;54.098;9.998;2023-09-12T09:09:26;17.17;;;15.00;;
7485;SDS011;3784;54.098;9.998;2023-09-12T09:11:53;15.27;;;13.77;;
7485;SDS011;3784;54.098;9.998;2023-09-12T09:14:20;13.97;;;12.57;;
7485;SDS011;3784;54.098;9.998;2023-09-12T09:16:46;13.90;;;12.60;;
7485;SDS011;3784;54.098;9.998;2023-09-12T09:19:13;16.17;;;13.83;;
7485;SDS011;3784;54.098;9.998;2023-09-12T09:21:39;13.87;;;12.37;;
7485;SDS011;3784;54.098;9.998;2023-09-12T09:24:07;14.43;;;12.93;;
7485;SDS011;3784;54.098;9.998;2023-09-12T09:29:15;13.37;;;12.07;;
7485;SDS011;3784;54.098;9.998;2023-09-12T09:31:43;12.47;;;11.17;;
7485;SDS011;3784;54.098;9.998;2023-09-12T09:34:15;13.63;;;12.43;;
7485;SDS011;3784;54.098;9.998;2023-09-12T09:36:46;17.03;;;14.90;;
7485;SDS011;3784;54.098;9.998;2023-09-12T09:39:14;15.60;;;13.47;;
7485;SDS011;3784;54.098;9.998;2023-09-12T09:41:42;14.37;;;12.87;;
7485;SDS011;3784;54.098;9.998;2023-09-12T09:44:08;15.23;;;13.73;;
7485;SDS011;3784;54.098;9.998;2023-09-12T09:46:35;13.67;;;12.37;;
7485;SDS011;3784;54.098;9.998;2023-09-12T09:49:03;12.60;;;11.30;;
7485;SDS011;3784;54.098;9.998;2023-09-12T09:51:30;11.43;;;10.23;;
7485;SDS011;3784;54.098;9.998;2023-09-12T09:53:58;12.27;;;9.53;;
7485;SDS011;3784;54.098;9.998;2023-09-12T09:56:24;13.73;;;9.93;;
7485;SDS011;3784;54.098;9.998;2023-09-12T09:58:54;11.13;;;9.77;;
7485;SDS011;3784;54.098;9.998;2023-09-12T10:01:22;12.53;;;10.53;;
7485;SDS011;3784;54.098;9.998;2023-09-12T10:03:59;11.70;;;10.57;;
7485;SDS011;3784;54.098;9.998;2023-09-12T10:06:27;11.83;;;10.00;;
7485;SDS011;3784;54.098;9.998;2023-09-12T10:08:54;11.07;;;9.43;;
7485;SDS011;3784;54.098;9.998;2023-09-12T10:11:24;11.43;;;10.30;;
7485;SDS011;3784;54.098;9.998;2023-09-12T10:13:55;12.97;;;11.77;;
7485;SDS011;3784;54.098;9.998;2023-09-12T10:16:22;11.93;;;10.73;;
7485;SDS011;3784;54.098;9.998;2023-09-12T10:21:45;12.47;;;11.33;;
7485;SDS011;3784;54.098;9.998;2023-09-12T10:24:14;12.33;;;11.20;;
7485;SDS011;3784;54.098;9.998;2023-09-12T10:26:42;10.93;;;10.03;;
7485;SDS011;3784;54.098;9.998;2023-09-12T10:29:14;9.63;;;8.73;;
7485;SDS011;3784;54.098;9.998;2023-09-12T10:31:43;9.70;;;8.80;;
7485;SDS011;3784;54.098;9.998;2023-09-12T10:34:12;9.27;;;8.23;;
7485;SDS011;3784;54.098;9.998;2023-09-12T10:36:43;9.13;;;8.33;;
7485;SDS011;3784;54.098;9.998;2023-09-12T10:39:12;10.80;;;9.60;;
7485;SDS011;3784;54.098;9.998;2023-09-12T10:41:39;11.97;;;9.50;;
7485;SDS011;3784;54.098;9.998;2023-09-12T10:44:15;11.60;;;10.40;;
7485;SDS011;3784;54.098;9.998;2023-09-12T10:46:43;10.13;;;9.10;;
7485;SDS011;3784;54.098;9.998;2023-09-12T10:49:11;10.47;;;8.80;;
7485;SDS011;3784;54.098;9.998;2023-09-12T10:51:39;9.63;;;8.43;;
7485;SDS011;3784;54.098;9.998;2023-09-12T10:54:07;9.03;;;8.07;;
7485;SDS011;3784;54.098;9.998;2023-09-12T10:56:34;10.27;;;9.30;;
7485;SDS011;3784;54.098;9.998;2023-09-12T11:01:30;11.90;;;10.57;;
7485;SDS011;3784;54.098;9.998;2023-09-12T11:03:58;10.73;;;9.83;;
7485;SDS011;3784;54.098;9.998;2023-09-12T11:06:29;8.93;;;8.13;;
7485;SDS011;3784;54.098;9.998;2023-09-12T11:11:42;9.63;;;8.60;;
7485;SDS011;3784;54.098;9.998;2023-09-12T11:14:09;9.00;;;8.20;;
7485;SDS011;3784;54.098;9.998;2023-09-12T11:16:35;9.00;;;8.20;;
7485;SDS011;3784;54.098;9.998;2023-09-12T11:19:12;11.00;;;8.90;;
7485;SDS011;3784;54.098;9.998;2023-09-12T11:21:40;11.07;;;8.07;;
7485;SDS011;3784;54.098;9.998;2023-09-12T11:24:07;9.73;;;8.20;;
7485;SDS011;3784;54.098;9.998;2023-09-12T11:26:33;9.10;;;7.70;;
7485;SDS011;3784;54.098;9.998;2023-09-12T11:29:21;8.87;;;7.97;;
7485;SDS011;3784;54.098;9.998;2023-09-12T11:31:56;8.70;;;7.97;;
7485;SDS011;3784;54.098;9.998;2023-09-12T11:34:26;8.97;;;8.10;;
7485;SDS011;3784;54.098;9.998;2023-09-12T11:36:57;10.20;;;7.53;;
7485;SDS011;3784;54.098;9.998;2023-09-12T11:39:30;10.43;;;7.20;;
7485;SDS011;3784;54.098;9.998;2023-09-12T11:41:58;8.33;;;7.47;;
7485;SDS011;3784;54.098;9.998;2023-09-12T11:44:25;9.07;;;8.20;;
7485;SDS011;3784;54.098;9.998;2023-09-12T11:46:53;10.03;;;9.03;;
7485;SDS011;3784;54.098;9.998;2023-09-12T11:49:20;8.03;;;7.23;;
7485;SDS011;3784;54.098;9.998;2023-09-12T11:51:47;8.37;;;6.90;;
7485;SDS011;3784;54.098;9.998;2023-09-12T11:54:15;10.73;;;8.23;;
7485;SDS011;3784;54.098;9.998;2023-09-12T11:56:47;8.50;;;7.27;;
7485;SDS011;3784;54.098;9.998;2023-09-12T11:59:15;10.03;;;7.60;;
7485;SDS011;3784;54.098;9.998;2023-09-12T12:01:45;10.43;;;7.83;;
7485;SDS011;3784;54.098;9.998;2023-09-12T12:04:12;8.83;;;7.27;;
7485;SDS011;3784;54.098;9.998;2023-09-12T12:06:39;8.50;;;7.70;;
7485;SDS011;3784;54.098;9.998;2023-09-12T12:09:07;7.63;;;6.80;;
7485;SDS011;3784;54.098;9.998;2023-09-12T12:11:33;7.63;;;6.83;;
7485;SDS011;3784;54.098;9.998;2023-09-12T12:14:10;10.90;;;6.40;;
7485;SDS011;3784;54.098;9.998;2023-09-12T12:16:41;9.03;;;6.30;;
7485;SDS011;3784;54.098;9.998;2023-09-12T12:19:09;6.37;;;5.70;;
7485;SDS011;3784;54.098;9.998;2023-09-12T12:21:38;7.03;;;5.93;;
7485;SDS011;3784;54.098;9.998;2023-09-12T12:24:07;6.53;;;5.93;;
7485;SDS011;3784;54.098;9.998;2023-09-12T12:26:34;7.13;;;5.73;;
7485;SDS011;3784;54.098;9.998;2023-09-12T12:29:00;6.47;;;5.40;;
7485;SDS011;3784;54.098;9.998;2023-09-12T12:31:27;5.93;;;5.27;;
7485;SDS011;3784;54.098;9.998;2023-09-12T12:33:58;7.97;;;6.03;;
7485;SDS011;3784;54.098;9.998;2023-09-12T12:36:45;7.00;;;6.40;;
7485;SDS011;3784;54.098;9.998;2023-09-12T12:39:23;8.00;;;7.10;;
7485;SDS011;3784;54.098;9.998;2023-09-12T12:41:53;8.07;;;7.27;;
7485;SDS011;3784;54.098;9.998;2023-09-12T12:44:20;6.23;;;5.70;;
7485;SDS011;3784;54.098;9.998;2023-09-12T12:46:51;8.00;;;6.23;;
7485;SDS011;3784;54.098;9.998;2023-09-12T12:49:19;7.90;;;6.63;;
7485;SDS011;3784;54.098;9.998;2023-09-12T12:51:46;8.10;;;6.33;;
7485;SDS011;3784;54.098;9.998;2023-09-12T12:54:14;7.90;;;7.00;;
7485;SDS011;3784;54.098;9.998;2023-09-12T12:56:41;8.60;;;7.37;;
7485;SDS011;3784;54.098;9.998;2023-09-12T12:59:10;8.07;;;7.37;;
7485;SDS011;3784;54.098;9.998;2023-09-12T13:01:36;8.30;;;7.40;;
7485;SDS011;3784;54.098;9.998;2023-09-12T13:04:05;8.27;;;7.50;;
7485;SDS011;3784;54.098;9.998;2023-09-12T13:06:33;8.43;;;7.50;;
7485;SDS011;3784;54.098;9.998;2023-09-12T13:09:03;9.13;;;8.13;;
7485;SDS011;3784;54.098;9.998;2023-09-12T13:11:34;8.00;;;7.20;;
7485;SDS011;3784;54.098;9.998;2023-09-12T13:14:01;8.17;;;7.30;;
7485;SDS011;3784;54.098;9.998;2023-09-12T13:16:29;8.97;;;8.13;;
7485;SDS011;3784;54.098;9.998;2023-09-12T13:18:56;10.10;;;8.93;;
7485;SDS011;3784;54.098;9.998;2023-09-12T13:21:22;11.10;;;10.10;;
7485;SDS011;3784;54.098;9.998;2023-09-12T13:23:48;12.00;;;10.17;;
7485;SDS011;3784;54.098;9.998;2023-09-12T13:26:15;10.97;;;9.97;;
7485;SDS011;3784;54.098;9.998;2023-09-12T13:28:41;9.50;;;8.60;;
7485;SDS011;3784;54.098;9.998;2023-09-12T13:31:08;11.57;;;10.43;;
7485;SDS011;3784;54.098;9.998;2023-09-12T13:33:34;9.60;;;8.80;;
7485;SDS011;3784;54.098;9.998;2023-09-12T13:36:01;7.73;;;7.13;;
7485;SDS011;3784;54.098;9.998;2023-09-12T13:38:27;8.60;;;7.77;;
7485;SDS011;3784;54.098;9.998;2023-09-12T13:40:53;7.70;;;7.00;;
7485;SDS011;3784;54.098;9.998;2023-09-12T13:43:20;8.97;;;7.37;;
7485;SDS011;3784;54.098;9.998;2023-09-12T13:45:46;12.87;;;7.77;;
7485;SDS011;3784;54.098;9.998;2023-09-12T13:48:13;7.93;;;7.13;;
7485;SDS011;3784;54.098;9.998;2023-09-12T13:50:40;8.20;;;7.40;;
7485;SDS011;3784;54.098;9.998;2023-09-12T13:53:06;8.00;;;7.20;;
7485;SDS011;3784;54.098;9.998;2023-09-12T13:55:33;8.10;;;7.07;;
7485;SDS011;3784;54.098;9.998;2023-09-12T13:58:12;9.67;;;8.77;;
7485;SDS011;3784;54.098;9.998;2023-09-12T14:00:39;8.23;;;6.93;;
7485;SDS011;3784;54.098;9.998;2023-09-12T14:03:05;8.33;;;6.63;;
7485;SDS011;3784;54.098;9.998;2023-09-12T14:05:32;8.33;;;6.87;;
7485;SDS011;3784;54.098;9.998;2023-09-12T14:07:59;7.73;;;7.03;;
7485;SDS011;3784;54.098;9.998;2023-09-12T14:10:25;7.70;;;6.93;;
7485;SDS011;3784;54.098;9.998;2023-09-12T14:13:02;8.00;;;7.23;;
7485;SDS011;3784;54.098;9.998;2023-09-12T14:15:46;10.37;;;7.93;;
7485;SDS011;3784;54.098;9.998;2023-09-12T14:18:13;8.03;;;7.23;;
7485;SDS011;3784;54.098;9.998;2023-09-12T14:20:39;8.63;;;7.60;;
7485;SDS011;3784;54.098;9.998;2023-09-12T14:23:06;7.80;;;6.57;;
7485;SDS011;3784;54.098;9.998;2023-09-12T14:25:33;7.17;;;4.97;;
7485;SDS011;3784;54.098;9.998;2023-09-12T14:28:01;5.60;;;5.20;;
7485;SDS011;3784;54.098;9.998;2023-09-12T14:30:31;5.70;;;4.90;;
7485;SDS011;3784;54.098;9.998;2023-09-12T14:33:02;5.60;;;5.00;;
7485;SDS011;3784;54.098;9.998;2023-09-12T14:35:29;8.30;;;5.50;;
7485;SDS011;3784;54.098;9.998;2023-09-12T14:37:55;5.60;;;4.77;;
7485;SDS011;3784;54.098;9.998;2023-09-12T14:40:23;7.07;;;5.13;;
7485;SDS011;3784;54.098;9.998;2023-09-12T14:42:49;11.20;;;5.20;;
7485;SDS011;3784;54.098;9.998;2023-09-12T14:45:16;5.47;;;4.77;;
7485;SDS011;3784;54.098;9.998;2023-09-12T14:47:43;6.40;;;5.37;;
7485;SDS011;3784;54.098;9.998;2023-09-12T14:50:10;6.20;;;5.60;;
7485;SDS011;3784;54.098;9.998;2023-09-12T14:52:36;5.77;;;5.27;;
7485;SDS011;3784;54.098;9.998;2023-09-12T14:55:05;6.93;;;5.13;;
7485;SDS011;3784;54.098;9.998;2023-09-12T14:57:32;5.50;;;5.00;;
7485;SDS011;3784;54.098;9.998;2023-09-12T14:59:59;5.80;;;5.30;;
7485;SDS011;3784;54.098;9.998;2023-09-12T15:02:26;5.80;;;4.97;;
7485;SDS011;3784;54.098;9.998;2023-09-12T15:04:59;5.03;;;4.63;;
7485;SDS011;3784;54.098;9.998;2023-09-12T15:07:27;6.57;;;5.20;;
7485;SDS011;3784;54.098;9.998;2023-09-12T15:09:56;5.10;;;4.70;;